Terminal Aerodrome Forecast
Issued by NWS Shreveport, LA

Home | Current Version | Previous Version | Text Only | Print | Product List | Glossary On
Versions: 1 2 3 4 5 6 7 8 9 10 11 12 13 14 15 16 17 18 19 20
399
FTUS44 KSHV 210045 AAA
TAFLFK
TAF AMD
KLFK 210045Z 2101/2124 VRB06KT P6SM VCTS SCT035 OVC080CB
      TEMPO 2101/2105 5SM -TSRA BKN015CB OVC050
     FM210500 15003KT P6SM VCTS OVC010CB
      TEMPO 2106/2110 5SM BR OVC005
     FM211000 15003KT 3SM BR OVC005
     FM211600 19005KT P6SM VCTS OVC010CB
     FM212100 22008KT P6SM VCTS OVC025CB=

USA.gov is the U.S. government's official web portal to all federal, state and local government web resources and services.